Burbank, California
Current Conditions -  °F | °C
As of 3:53 AM on Wednesday 28 Jan 2015 (Local Time) from KBUR Reporting Station
Clear Clear  
Wind Chill: 55°   Ceiling: Unl
Heat Index: 55°   Visibility: 10mi
Dew Point: 42°   Wind: 3mph
Humidity: 62%   Direction: 350°N
Pressure: 30.15"   Gusts: NA
Location:  34.18°N, 118.3°W
Report Text: KBUR 281153Z 35003KT 10SM CLR 13/06 A3015 RMK AO2 SLP200 70001 T01280056 10139 20117 58006
Loading
Personal Weather Stations






























Interactive Weather Map New forecast layout! Learn more

10-Day Weather Forecast

Advertisements
Track Severe Weather on mobile